createdAt,value
2018-08-07T00:00:02.657Z,809.3
2018-08-07T00:00:06.859Z,809.3
2018-08-07T00:00:11.213Z,809.27
2018-08-07T00:00:15.414Z,809.28
2018-08-07T00:00:19.738Z,809.28
2018-08-07T00:00:23.824Z,809.32
2018-08-07T00:00:27.921Z,809.28
2018-08-07T00:00:32.225Z,809.31
2018-08-07T00:00:36.428Z,809.32
2018-08-07T00:00:40.671Z,809.29
2018-08-07T00:00:44.974Z,809.27
2018-08-07T00:00:49.278Z,809.27
2018-08-07T00:00:53.592Z,809.28
2018-08-07T00:00:57.894Z,809.26
2018-08-07T00:01:01.983Z,809.29
2018-08-07T00:01:06.081Z,809.29
2018-08-07T00:01:10.280Z,809.28
2018-08-07T00:01:14.577Z,809.26
2018-08-07T00:01:18.671Z,809.29
2018-08-07T00:01:22.975Z,809.26
2018-08-07T00:01:27.176Z,809.27
2018-08-07T00:01:31.499Z,809.23
2018-08-07T00:01:35.702Z,809.25
2018-08-07T00:01:39.899Z,809.26
2018-08-07T00:01:44.099Z,809.26
2018-08-07T00:01:48.293Z,809.22
2018-08-07T00:01:52.495Z,809.25
2018-08-07T00:01:56.703Z,809.23
2018-08-07T00:02:00.792Z,809.22
2018-08-07T00:02:04.992Z,809.24
2018-08-07T00:02:09.233Z,809.23
2018-08-07T00:02:13.455Z,809.24
2018-08-07T00:02:17.989Z,809.21
2018-08-07T00:02:22.723Z,809.23
2018-08-07T00:02:27.088Z,809.21
2018-08-07T00:02:31.073Z,809.24
2018-08-07T00:02:35.369Z,809.25
2018-08-07T00:02:39.461Z,809.27
2018-08-07T00:02:43.232Z,809.24
2018-08-07T00:02:47.538Z,809.24
2018-08-07T00:02:51.855Z,809.22
2018-08-07T00:02:56.061Z,809.25
2018-08-07T00:03:00.256Z,809.18
2018-08-07T00:03:04.459Z,809.26
2018-08-07T00:03:08.662Z,809.18
2018-08-07T00:03:12.861Z,809.21
2018-08-07T00:03:17.057Z,809.24
2018-08-07T00:03:21.163Z,809.22
2018-08-07T00:03:25.364Z,809.22
2018-08-07T00:03:29.624Z,809.21
2018-08-07T00:03:33.714Z,809.21
2018-08-07T00:03:38.015Z,809.22
2018-08-07T00:03:42.320Z,809.2
2018-08-07T00:03:46.515Z,809.17
2018-08-07T00:03:50.710Z,809.19
2018-08-07T00:03:54.802Z,809.18
2018-08-07T00:03:59.001Z,809.17
2018-08-07T00:04:03.091Z,809.2
2018-08-07T00:04:07.444Z,809.2
2018-08-07T00:04:11.652Z,809.16
2018-08-07T00:04:15.846Z,809.18
2018-08-07T00:04:20.151Z,809.2
2018-08-07T00:04:24.355Z,809.2
2018-08-07T00:04:28.338Z,809.18
2018-08-07T00:04:32.530Z,809.17
2018-08-07T00:04:36.834Z,809.16
2018-08-07T00:04:41.131Z,809.17
2018-08-07T00:04:45.328Z,809.17
2018-08-07T00:04:49.642Z,809.17
2018-08-07T00:04:53.949Z,809.18
2018-08-07T00:04:58.146Z,809.17
2018-08-07T00:05:02.025Z,809.13
2018-08-07T00:05:06.118Z,809.15
2018-08-07T00:05:10.213Z,809.17
2018-08-07T00:05:14.416Z,809.15
2018-08-07T00:05:18.505Z,809.17
2018-08-07T00:05:22.702Z,809.17
2018-08-07T00:05:26.688Z,809.14
2018-08-07T00:05:30.995Z,809.15
2018-08-07T00:05:35.296Z,809.15
2018-08-07T00:05:39.600Z,809.14
2018-08-07T00:05:43.907Z,809.2
2018-08-07T00:05:48.115Z,809.14
2018-08-07T00:05:52.462Z,809.1
2018-08-07T00:05:56.663Z,809.13
2018-08-07T00:06:00.754Z,809.15
2018-08-07T00:06:04.837Z,809.17
2018-08-07T00:06:09.037Z,809.15
2018-08-07T00:06:13.335Z,809.14
2018-08-07T00:06:17.529Z,809.13
2018-08-07T00:06:21.741Z,809.13
2018-08-07T00:06:25.938Z,809.16
2018-08-07T00:06:30.133Z,809.13
2018-08-07T00:06:34.425Z,809.15
2018-08-07T00:06:38.720Z,809.13
2018-08-07T00:06:43.018Z,809.1
2018-08-07T00:06:47.109Z,809.1
2018-08-07T00:06:51.302Z,809.09
2018-08-07T00:06:55.502Z,809.09
2018-08-07T00:06:59.851Z,809.1
2018-08-07T00:07:04.152Z,809.08
2018-08-07T00:07:08.349Z,809.09
2018-08-07T00:07:12.691Z,809.1
2018-08-07T00:07:16.782Z,809.11
2018-08-07T00:07:20.877Z,809.1
2018-08-07T00:07:25.086Z,809.08
2018-08-07T00:07:29.395Z,809.1
2018-08-07T00:07:33.592Z,809.07
2018-08-07T00:07:37.680Z,809.08
2018-08-07T00:07:41.776Z,809.08
2018-08-07T00:07:46.079Z,809.07
2018-08-07T00:07:50.381Z,809.05
2018-08-07T00:07:54.578Z,809.06
2018-08-07T00:07:58.775Z,809.06
2018-08-07T00:08:02.866Z,809.05
2018-08-07T00:08:06.959Z,809.06
2018-08-07T00:08:11.264Z,809.02
2018-08-07T00:08:15.259Z,809.06
2018-08-07T00:08:19.357Z,809.04
2018-08-07T00:08:23.553Z,809.04
2018-08-07T00:08:27.744Z,809.03
2018-08-07T00:08:31.939Z,809.04
2018-08-07T00:08:36.245Z,809.02
2018-08-07T00:08:40.548Z,809.01
2018-08-07T00:08:44.849Z,809
2018-08-07T00:08:49.151Z,809.02
2018-08-07T00:08:53.449Z,808.99
2018-08-07T00:08:57.651Z,808.94
2018-08-07T00:09:01.857Z,808.99
2018-08-07T00:09:06.002Z,808.98
2018-08-07T00:09:10.206Z,808.99
2018-08-07T00:09:14.411Z,808.97
2018-08-07T00:09:18.717Z,808.98
2018-08-07T00:09:22.948Z,808.92
2018-08-07T00:09:27.248Z,808.96
2018-08-07T00:09:31.443Z,808.96
2018-08-07T00:09:35.529Z,808.95
2018-08-07T00:09:39.511Z,808.96
2018-08-07T00:09:43.712Z,809
2018-08-07T00:09:48.010Z,808.9
2018-08-07T00:09:52.098Z,808.97
2018-08-07T00:09:56.185Z,808.98
2018-08-07T00:10:00.378Z,808.94
2018-08-07T00:10:04.361Z,808.94
2018-08-07T00:10:08.240Z,808.94
2018-08-07T00:10:12.326Z,808.93
2018-08-07T00:10:16.418Z,808.93
2018-08-07T00:10:20.606Z,808.92
2018-08-07T00:10:24.808Z,808.91
2018-08-07T00:10:29.174Z,808.95
2018-08-07T00:10:33.472Z,808.91
2018-08-07T00:10:37.669Z,808.87
2018-08-07T00:10:41.757Z,808.89
2018-08-07T00:10:46.063Z,808.91
2018-08-07T00:10:50.363Z,808.92
2018-08-07T00:10:54.558Z,808.89
2018-08-07T00:10:58.857Z,808.89
2018-08-07T00:11:03.094Z,808.9
2018-08-07T00:11:07.296Z,808.86
2018-08-07T00:11:11.602Z,808.82
2018-08-07T00:11:15.692Z,808.84
2018-08-07T00:11:20.001Z,808.84
2018-08-07T00:11:24.198Z,808.88
2018-08-07T00:11:28.286Z,808.82
2018-08-07T00:11:32.375Z,808.83
2018-08-07T00:11:36.577Z,808.83
2018-08-07T00:11:40.772Z,808.78
2018-08-07T00:11:45.087Z,808.79
2018-08-07T00:11:49.167Z,808.82
2018-08-07T00:11:53.366Z,808.8
2018-08-07T00:11:57.682Z,808.81
2018-08-07T00:12:01.668Z,808.8
2018-08-07T00:12:06.117Z,808.8
2018-08-07T00:12:10.317Z,808.77
2018-08-07T00:12:14.509Z,808.81
2018-08-07T00:12:18.704Z,808.74
2018-08-07T00:12:23.027Z,808.75
2018-08-07T00:12:27.224Z,808.75
2018-08-07T00:12:31.417Z,808.74
2018-08-07T00:12:35.608Z,808.73
2018-08-07T00:12:39.801Z,808.71
2018-08-07T00:12:43.993Z,808.71
2018-08-07T00:12:48.293Z,808.73
2018-08-07T00:12:52.495Z,808.7
2018-08-07T00:12:56.813Z,808.7
2018-08-07T00:13:01.010Z,808.65
2018-08-07T00:13:05.109Z,808.67
2018-08-07T00:13:09.205Z,808.71
2018-08-07T00:13:13.403Z,808.7
2018-08-07T00:13:17.595Z,808.68
2018-08-07T00:13:21.791Z,808.69
2018-08-07T00:13:25.990Z,808.65
2018-08-07T00:13:30.291Z,808.66
2018-08-07T00:13:34.434Z,808.66
2018-08-07T00:13:38.731Z,808.65
2018-08-07T00:13:42.925Z,808.64
2018-08-07T00:13:47.123Z,808.65
2018-08-07T00:13:51.467Z,808.64
2018-08-07T00:13:55.766Z,808.61
2018-08-07T00:14:00.069Z,808.65
2018-08-07T00:14:04.270Z,808.61
2018-08-07T00:14:08.600Z,808.59
2018-08-07T00:14:12.902Z,808.6
2018-08-07T00:14:16.900Z,808.61
2018-08-07T00:14:21.112Z,808.6
2018-08-07T00:14:25.308Z,808.6
2018-08-07T00:14:29.615Z,808.58
2018-08-07T00:14:33.937Z,808.57
2018-08-07T00:14:38.137Z,808.56
2018-08-07T00:14:42.234Z,808.59
2018-08-07T00:14:46.111Z,808.57
2018-08-07T00:14:50.304Z,808.56
2018-08-07T00:14:54.606Z,808.54
2018-08-07T00:14:58.801Z,808.55
2018-08-07T00:15:03.011Z,808.55
2018-08-07T00:15:07.217Z,808.54
2018-08-07T00:15:11.522Z,808.52
2018-08-07T00:15:15.721Z,808.51
2018-08-07T00:15:20.026Z,808.52
2018-08-07T00:15:24.224Z,808.51
2018-08-07T00:15:28.421Z,808.48
2018-08-07T00:15:32.622Z,808.5
2018-08-07T00:15:36.819Z,808.5
2018-08-07T00:15:40.911Z,808.48
2018-08-07T00:15:45.208Z,808.51
2018-08-07T00:15:49.526Z,808.47
2018-08-07T00:15:53.718Z,808.47
2018-08-07T00:15:58.014Z,808.45
2018-08-07T00:16:02.327Z,808.45
2018-08-07T00:16:06.526Z,808.44
2018-08-07T00:16:10.830Z,808.43
2018-08-07T00:16:14.813Z,808.4
2018-08-07T00:16:19.108Z,808.38
2018-08-07T00:16:23.294Z,808.41
2018-08-07T00:16:27.595Z,808.42
2018-08-07T00:16:31.888Z,808.41
2018-08-07T00:16:36.080Z,808.43
2018-08-07T00:16:40.425Z,808.41
2018-08-07T00:16:44.510Z,808.39
2018-08-07T00:16:48.804Z,808.33
2018-08-07T00:16:53.107Z,808.35
2018-08-07T00:16:57.298Z,808.35
2018-08-07T00:17:01.382Z,808.35
2018-08-07T00:17:05.580Z,808.38
2018-08-07T00:17:09.888Z,808.35
2018-08-07T00:17:14.078Z,808.34
2018-08-07T00:17:18.384Z,808.35
2018-08-07T00:17:22.689Z,808.32
2018-08-07T00:17:26.669Z,808.36
2018-08-07T00:17:30.653Z,808.33
2018-08-07T00:17:34.738Z,808.34
2018-08-07T00:17:39.040Z,808.3
2018-08-07T00:17:43.233Z,808.3
2018-08-07T00:17:47.373Z,808.34
2018-08-07T00:17:51.669Z,808.28
2018-08-07T00:17:55.869Z,808.28
2018-08-07T00:18:00.063Z,808.29
2018-08-07T00:18:04.046Z,808.27
2018-08-07T00:18:08.199Z,808.28
2018-08-07T00:18:12.495Z,808.23
2018-08-07T00:18:16.735Z,808.27
2018-08-07T00:18:21.051Z,808.26
2018-08-07T00:18:25.237Z,808.25
2018-08-07T00:18:29.443Z,808.25
2018-08-07T00:18:33.429Z,808.23
2018-08-07T00:18:37.422Z,808.24
2018-08-07T00:18:41.615Z,808.24
2018-08-07T00:18:45.814Z,808.21
2018-08-07T00:18:50.005Z,808.17
2018-08-07T00:18:54.305Z,808.19
2018-08-07T00:18:58.391Z,808.21
2018-08-07T00:19:02.637Z,808.19
2018-08-07T00:19:06.940Z,808.21
2018-08-07T00:19:11.240Z,808.17
2018-08-07T00:19:15.332Z,808.17
2018-08-07T00:19:19.529Z,808.15
2018-08-07T00:19:23.718Z,808.2
2018-08-07T00:19:28.017Z,808.15
2018-08-07T00:19:32.102Z,808.14
2018-08-07T00:19:36.403Z,808.16
2018-08-07T00:19:40.699Z,808.17
2018-08-07T00:19:44.888Z,808.15
2018-08-07T00:19:49.182Z,808.16
2018-08-07T00:19:53.484Z,808.16
2018-08-07T00:19:57.670Z,808.14
2018-08-07T00:20:01.869Z,808.14
2018-08-07T00:20:05.957Z,808.11
2018-08-07T00:20:10.151Z,808.09
2018-08-07T00:20:14.358Z,808.15
2018-08-07T00:20:18.452Z,808.14
2018-08-07T00:20:22.794Z,808.13
2018-08-07T00:20:26.984Z,808.1
2018-08-07T00:20:31.194Z,808.11
2018-08-07T00:20:35.283Z,808.09
2018-08-07T00:20:39.479Z,808.1
2018-08-07T00:20:43.786Z,808.08
2018-08-07T00:20:47.879Z,808.09
2018-08-07T00:20:52.185Z,808.11
2018-08-07T00:20:56.269Z,808.08
2018-08-07T00:21:00.565Z,808.05
2018-08-07T00:21:04.654Z,808.07
2018-08-07T00:21:08.961Z,808.07
2018-08-07T00:21:13.259Z,808.06
2018-08-07T00:21:17.342Z,808.08
2018-08-07T00:21:21.641Z,808.07
2018-08-07T00:21:25.850Z,808.07
2018-08-07T00:21:30.142Z,808.08
2018-08-07T00:21:34.447Z,808.07
2018-08-07T00:21:38.538Z,808.03
2018-08-07T00:21:42.836Z,808.05
2018-08-07T00:21:47.048Z,808.06
2018-08-07T00:21:51.343Z,807.99
2018-08-07T00:21:55.323Z,808.03
2018-08-07T00:21:59.520Z,808.01
2018-08-07T00:22:03.714Z,808.04
2018-08-07T00:22:08.197Z,808.05
2018-08-07T00:22:12.399Z,808.05
2018-08-07T00:22:16.708Z,808.05
2018-08-07T00:22:21.010Z,808.01
2018-08-07T00:22:25.325Z,808.01
2018-08-07T00:22:29.537Z,808.05
2018-08-07T00:22:33.622Z,808.05
2018-08-07T00:22:37.603Z,808.05
2018-08-07T00:22:41.579Z,808.03
2018-08-07T00:22:45.876Z,808.04
2018-08-07T00:22:50.185Z,808.05
2018-08-07T00:22:54.484Z,808.01
2018-08-07T00:22:58.690Z,807.96
2018-08-07T00:23:02.776Z,808.03
2018-08-07T00:23:07.072Z,808.02
2018-08-07T00:23:11.270Z,808.04
2018-08-07T00:23:15.481Z,808.02
2018-08-07T00:23:19.789Z,808.03
2018-08-07T00:23:24.002Z,808.06
2018-08-07T00:23:28.303Z,808.04
2018-08-07T00:23:32.503Z,808.08
2018-08-07T00:23:36.695Z,808.02
2018-08-07T00:23:40.886Z,808.04
2018-08-07T00:23:45.079Z,808
2018-08-07T00:23:49.389Z,808
2018-08-07T00:23:53.580Z,808.02
2018-08-07T00:23:57.775Z,808.02
2018-08-07T00:24:01.863Z,808.05
2018-08-07T00:24:06.131Z,808.01
2018-08-07T00:24:10.331Z,808.07
2018-08-07T00:24:14.420Z,808.04
2018-08-07T00:24:18.613Z,808.01
2018-08-07T00:24:22.913Z,808.03
2018-08-07T00:24:27.111Z,808.03
2018-08-07T00:24:31.409Z,808.02
2018-08-07T00:24:35.496Z,808.03
2018-08-07T00:24:39.689Z,808.02
2018-08-07T00:24:43.884Z,808.04
2018-08-07T00:24:48.191Z,808.05
2018-08-07T00:24:52.505Z,808.04
2018-08-07T00:24:56.817Z,808.04
2018-08-07T00:25:01.123Z,808.03
2018-08-07T00:25:05.106Z,808.04
2018-08-07T00:25:09.410Z,808.02
2018-08-07T00:25:13.504Z,808.03
2018-08-07T00:25:17.804Z,808.04
2018-08-07T00:25:22.002Z,808.04
2018-08-07T00:25:26.305Z,808.02
2018-08-07T00:25:30.501Z,808.04
2018-08-07T00:25:34.587Z,808.04
2018-08-07T00:25:38.890Z,808.03
2018-08-07T00:25:42.867Z,808.05
2018-08-07T00:25:46.956Z,808.01
2018-08-07T00:25:51.149Z,808.03
2018-08-07T00:25:55.452Z,808.02
2018-08-07T00:25:59.755Z,808.06
2018-08-07T00:26:04.214Z,808.03
2018-08-07T00:26:08.195Z,807.99
2018-08-07T00:26:12.495Z,807.98
2018-08-07T00:26:16.587Z,808.04
2018-08-07T00:26:20.678Z,808.03
2018-08-07T00:26:24.979Z,808.01
2018-08-07T00:26:29.306Z,808.03
2018-08-07T00:26:33.301Z,808.02
2018-08-07T00:26:37.503Z,808.02
2018-08-07T00:26:41.590Z,808.03
2018-08-07T00:26:45.783Z,808.02
2018-08-07T00:26:49.875Z,808
2018-08-07T00:26:53.963Z,808.01
2018-08-07T00:26:58.150Z,807.98
2018-08-07T00:27:02.455Z,808.01
2018-08-07T00:27:06.649Z,808.01
2018-08-07T00:27:10.740Z,808.03
2018-08-07T00:27:14.948Z,808
2018-08-07T00:27:19.038Z,808.04
2018-08-07T00:27:23.339Z,807.93
2018-08-07T00:27:27.638Z,808.02
2018-08-07T00:27:31.929Z,807.96
2018-08-07T00:27:36.115Z,808
2018-08-07T00:27:40.318Z,807.97
2018-08-07T00:27:44.405Z,807.97
2018-08-07T00:27:48.704Z,807.99
2018-08-07T00:27:53.010Z,807.95
2018-08-07T00:27:57.208Z,807.98
2018-08-07T00:28:01.545Z,807.98
2018-08-07T00:28:05.638Z,807.98
2018-08-07T00:28:09.617Z,807.96
2018-08-07T00:28:13.818Z,807.95
2018-08-07T00:28:18.015Z,807.96
2018-08-07T00:28:22.316Z,807.96
2018-08-07T00:28:26.508Z,807.94
2018-08-07T00:28:30.808Z,807.93
2018-08-07T00:28:34.786Z,807.89
2018-08-07T00:28:38.873Z,807.87
2018-08-07T00:28:43.182Z,807.93
2018-08-07T00:28:47.317Z,807.94
2018-08-07T00:28:51.516Z,807.88
2018-08-07T00:28:55.823Z,807.91
2018-08-07T00:29:00.020Z,807.88
2018-08-07T00:29:04.222Z,807.86
2018-08-07T00:29:08.541Z,807.87
2018-08-07T00:29:12.743Z,807.92
2018-08-07T00:29:16.934Z,807.93
2018-08-07T00:29:21.029Z,807.92
2018-08-07T00:29:25.121Z,807.9
2018-08-07T00:29:29.214Z,807.92
2018-08-07T00:29:33.514Z,807.9
2018-08-07T00:29:37.814Z,807.89
2018-08-07T00:29:42.006Z,807.9
2018-08-07T00:29:46.317Z,807.86
2018-08-07T00:29:50.510Z,807.85
2018-08-07T00:29:54.608Z,807.91
2018-08-07T00:29:58.808Z,807.89
2018-08-07T00:30:02.897Z,807.84
2018-08-07T00:30:07.087Z,807.87
2018-08-07T00:30:11.285Z,807.86
2018-08-07T00:30:15.601Z,807.81
2018-08-07T00:30:19.905Z,807.85
2018-08-07T00:30:24.003Z,807.84
2018-08-07T00:30:28.313Z,807.87
2018-08-07T00:30:32.511Z,807.78
2018-08-07T00:30:36.603Z,807.83
2018-08-07T00:30:40.805Z,807.84
2018-08-07T00:30:45.109Z,807.83
2018-08-07T00:30:49.410Z,807.84
2018-08-07T00:30:53.710Z,807.83
2018-08-07T00:30:57.797Z,807.82
2018-08-07T00:31:01.996Z,807.84
2018-08-07T00:31:05.978Z,807.81
2018-08-07T00:31:10.171Z,807.8
2018-08-07T00:31:14.258Z,807.82
2018-08-07T00:31:18.570Z,807.79
2018-08-07T00:31:22.774Z,807.79
2018-08-07T00:31:26.870Z,807.78
2018-08-07T00:31:31.062Z,807.78
2018-08-07T00:31:35.263Z,807.76
2018-08-07T00:31:39.464Z,807.79
2018-08-07T00:31:43.769Z,807.78
2018-08-07T00:31:47.864Z,807.77
2018-08-07T00:31:52.170Z,807.77
2018-08-07T00:31:56.258Z,807.78
2018-08-07T00:32:00.355Z,807.78
2018-08-07T00:32:04.603Z,807.76
2018-08-07T00:32:08.906Z,807.76
2018-08-07T00:32:12.889Z,807.77
2018-08-07T00:32:16.979Z,807.74
2018-08-07T00:32:21.307Z,807.7
2018-08-07T00:32:25.399Z,807.74
2018-08-07T00:32:29.639Z,807.72
2018-08-07T00:32:33.834Z,807.74
2018-08-07T00:32:37.917Z,807.69
2018-08-07T00:32:42.226Z,807.7
2018-08-07T00:32:46.320Z,807.73
2018-08-07T00:32:50.616Z,807.74
2018-08-07T00:32:54.911Z,807.69
2018-08-07T00:32:59.208Z,807.72
2018-08-07T00:33:03.508Z,807.7
2018-08-07T00:33:07.594Z,807.71
2018-08-07T00:33:11.899Z,807.73
2018-08-07T00:33:15.987Z,807.67
2018-08-07T00:33:20.288Z,807.7
2018-08-07T00:33:24.487Z,807.69
2018-08-07T00:33:28.680Z,807.68
2018-08-07T00:33:32.893Z,807.71
2018-08-07T00:33:37.084Z,807.7
2018-08-07T00:33:41.388Z,807.69
2018-08-07T00:33:45.575Z,807.66
2018-08-07T00:33:49.660Z,807.66
2018-08-07T00:33:53.646Z,807.68
2018-08-07T00:33:57.742Z,807.68
2018-08-07T00:34:01.879Z,807.68
2018-08-07T00:34:06.072Z,807.64
2018-08-07T00:34:10.274Z,807.68
2018-08-07T00:34:14.573Z,807.61
2018-08-07T00:34:18.767Z,807.62
2018-08-07T00:34:22.853Z,807.68
2018-08-07T00:34:27.180Z,807.67
2018-08-07T00:34:31.372Z,807.66
2018-08-07T00:34:35.474Z,807.65
2018-08-07T00:34:39.565Z,807.63
2018-08-07T00:34:43.805Z,807.64
2018-08-07T00:34:47.997Z,807.64
2018-08-07T00:34:52.318Z,807.65
2018-08-07T00:34:56.659Z,807.64
2018-08-07T00:35:00.959Z,807.64
2018-08-07T00:35:05.045Z,807.65
2018-08-07T00:35:09.348Z,807.61
2018-08-07T00:35:13.541Z,807.62
2018-08-07T00:35:17.734Z,807.65
2018-08-07T00:35:21.926Z,807.58
2018-08-07T00:35:26.126Z,807.65
2018-08-07T00:35:30.319Z,807.6
2018-08-07T00:35:34.622Z,807.61
2018-08-07T00:35:38.601Z,807.62
2018-08-07T00:35:42.801Z,807.6
2018-08-07T00:35:46.997Z,807.62
2018-08-07T00:35:51.187Z,807.55
2018-08-07T00:35:55.277Z,807.59
2018-08-07T00:35:59.473Z,807.58
2018-08-07T00:36:03.467Z,807.6
2018-08-07T00:36:07.764Z,807.55
2018-08-07T00:36:11.862Z,807.58
2018-08-07T00:36:16.208Z,807.57
2018-08-07T00:36:20.294Z,807.57
2018-08-07T00:36:24.492Z,807.58
2018-08-07T00:36:28.684Z,807.54
2018-08-07T00:36:32.988Z,807.56
2018-08-07T00:36:37.296Z,807.55
2018-08-07T00:36:41.491Z,807.57
2018-08-07T00:36:45.783Z,807.57
2018-08-07T00:36:49.977Z,807.57
2018-08-07T00:36:54.061Z,807.54
2018-08-07T00:36:58.154Z,807.49
2018-08-07T00:37:02.345Z,807.57
2018-08-07T00:37:06.651Z,807.54
2018-08-07T00:37:10.798Z,807.51
2018-08-07T00:37:14.897Z,807.55
2018-08-07T00:37:19.192Z,807.57
2018-08-07T00:37:23.428Z,807.51
2018-08-07T00:37:27.519Z,807.5
2018-08-07T00:37:31.810Z,807.56
2018-08-07T00:37:36.127Z,807.55
2018-08-07T00:37:40.536Z,807.54
2018-08-07T00:37:45.284Z,807.56
2018-08-07T00:37:49.996Z,807.55
2018-08-07T00:37:54.606Z,807.54
2018-08-07T00:37:59.338Z,807.54
2018-08-07T00:38:03.535Z,807.54
2018-08-07T00:38:07.735Z,807.54
2018-08-07T00:38:11.939Z,807.53
2018-08-07T00:38:16.129Z,807.48
2018-08-07T00:38:20.339Z,807.5
2018-08-07T00:38:24.534Z,807.54
2018-08-07T00:38:28.842Z,807.53
2018-08-07T00:38:33.044Z,807.54
2018-08-07T00:38:37.236Z,807.55
2018-08-07T00:38:41.434Z,807.52
2018-08-07T00:38:45.735Z,807.53
2018-08-07T00:38:49.930Z,807.53
2018-08-07T00:38:54.131Z,807.52
2018-08-07T00:38:58.223Z,807.53
2018-08-07T00:39:02.327Z,807.52
2018-08-07T00:39:06.630Z,807.52
2018-08-07T00:39:10.943Z,807.49
2018-08-07T00:39:15.250Z,807.51
2018-08-07T00:39:19.563Z,807.51
2018-08-07T00:39:23.869Z,807.53
2018-08-07T00:39:27.958Z,807.55
2018-08-07T00:39:32.054Z,807.48
2018-08-07T00:39:36.252Z,807.5
2018-08-07T00:39:40.559Z,807.51
2018-08-07T00:39:44.754Z,807.5
2018-08-07T00:39:48.979Z,807.55
2018-08-07T00:39:53.306Z,807.51
2018-08-07T00:39:57.612Z,807.54
2018-08-07T00:40:01.821Z,807.51
2018-08-07T00:40:05.802Z,807.51
2018-08-07T00:40:10.007Z,807.49
2018-08-07T00:40:14.205Z,807.52
2018-08-07T00:40:18.511Z,807.51
2018-08-07T00:40:22.852Z,807.51
2018-08-07T00:40:27.055Z,807.52
2018-08-07T00:40:31.250Z,807.51
2018-08-07T00:40:35.552Z,807.5
2018-08-07T00:40:39.638Z,807.48
2018-08-07T00:40:43.829Z,807.47
2018-08-07T00:40:48.038Z,807.48
2018-08-07T00:40:52.229Z,807.45
2018-08-07T00:40:56.530Z,807.47
2018-08-07T00:41:00.517Z,807.47
2018-08-07T00:41:04.866Z,807.47
2018-08-07T00:41:08.961Z,807.5
2018-08-07T00:41:13.154Z,807.45
2018-08-07T00:41:17.238Z,807.49
2018-08-07T00:41:21.329Z,807.48
2018-08-07T00:41:25.422Z,807.47
2018-08-07T00:41:29.405Z,807.48
2018-08-07T00:41:33.610Z,807.5
2018-08-07T00:41:37.810Z,807.47
2018-08-07T00:41:42.010Z,807.46
2018-08-07T00:41:46.105Z,807.42
2018-08-07T00:41:50.302Z,807.47
2018-08-07T00:41:54.397Z,807.48
2018-08-07T00:41:58.485Z,807.49
2018-08-07T00:42:02.476Z,807.46
2018-08-07T00:42:06.677Z,807.46
2018-08-07T00:42:10.984Z,807.47
2018-08-07T00:42:15.186Z,807.49
2018-08-07T00:42:19.301Z,807.49
2018-08-07T00:42:23.603Z,807.47
2018-08-07T00:42:27.586Z,807.46
2018-08-07T00:42:31.895Z,807.47
2018-08-07T00:42:35.877Z,807.43
2018-08-07T00:42:40.075Z,807.49
2018-08-07T00:42:44.400Z,807.5
2018-08-07T00:42:48.716Z,807.46
2018-08-07T00:42:52.908Z,807.47
2018-08-07T00:42:57.003Z,807.45
2018-08-07T00:43:01.206Z,807.5
2018-08-07T00:43:05.617Z,807.49
2018-08-07T00:43:09.711Z,807.48
2018-08-07T00:43:14.014Z,807.43
2018-08-07T00:43:18.317Z,807.51
2018-08-07T00:43:22.538Z,807.49
2018-08-07T00:43:26.737Z,807.46
2018-08-07T00:43:30.929Z,807.48
2018-08-07T00:43:34.930Z,807.47
2018-08-07T00:43:39.230Z,807.5
2018-08-07T00:43:43.319Z,807.48
2018-08-07T00:43:47.519Z,807.48
2018-08-07T00:43:51.820Z,807.48
2018-08-07T00:43:56.118Z,807.51
2018-08-07T00:44:00.310Z,807.5
2018-08-07T00:44:04.300Z,807.5
2018-08-07T00:44:08.495Z,807.49
2018-08-07T00:44:12.790Z,807.5
2018-08-07T00:44:17.099Z,807.5
2018-08-07T00:44:21.397Z,807.44
2018-08-07T00:44:25.588Z,807.51
2018-08-07T00:44:29.567Z,807.5
2018-08-07T00:44:33.760Z,807.51
2018-08-07T00:44:37.951Z,807.48
2018-08-07T00:44:42.044Z,807.49
2018-08-07T00:44:46.137Z,807.47
2018-08-07T00:44:50.224Z,807.51
2018-08-07T00:44:54.316Z,807.52
2018-08-07T00:44:58.433Z,807.48
2018-08-07T00:45:02.623Z,807.51
2018-08-07T00:45:06.708Z,807.49
2018-08-07T00:45:10.902Z,807.49
2018-08-07T00:45:15.102Z,807.48
2018-08-07T00:45:19.433Z,807.46
2018-08-07T00:45:23.533Z,807.5
2018-08-07T00:45:27.731Z,807.52
2018-08-07T00:45:32.027Z,807.46
2018-08-07T00:45:36.226Z,807.47
2018-08-07T00:45:40.218Z,807.48
2018-08-07T00:45:44.419Z,807.49
2018-08-07T00:45:48.626Z,807.49
2018-08-07T00:45:52.933Z,807.46
2018-08-07T00:45:57.128Z,807.47
2018-08-07T00:46:01.216Z,807.49
2018-08-07T00:46:05.509Z,807.47
2018-08-07T00:46:09.599Z,807.51
2018-08-07T00:46:13.688Z,807.48
2018-08-07T00:46:17.985Z,807.5
2018-08-07T00:46:22.286Z,807.5
2018-08-07T00:46:26.596Z,807.5
2018-08-07T00:46:30.687Z,807.47
2018-08-07T00:46:34.880Z,807.49
2018-08-07T00:46:38.969Z,807.49
2018-08-07T00:46:43.166Z,807.47
2018-08-07T00:46:47.473Z,807.49
2018-08-07T00:46:51.450Z,807.48
2018-08-07T00:46:55.541Z,807.42
2018-08-07T00:46:59.741Z,807.48
2018-08-07T00:47:03.940Z,807.49
2018-08-07T00:47:08.130Z,807.46
2018-08-07T00:47:12.332Z,807.47
2018-08-07T00:47:16.527Z,807.47
2018-08-07T00:47:20.725Z,807.48
2018-08-07T00:47:24.938Z,807.48
2018-08-07T00:47:29.236Z,807.46
2018-08-07T00:47:33.425Z,807.44
2018-08-07T00:47:37.715Z,807.5
2018-08-07T00:47:41.800Z,807.44
2018-08-07T00:47:46.101Z,807.46
2018-08-07T00:47:50.308Z,807.48
2018-08-07T00:47:54.400Z,807.48
2018-08-07T00:47:58.598Z,807.44
2018-08-07T00:48:02.804Z,807.48
2018-08-07T00:48:07.105Z,807.46
2018-08-07T00:48:11.401Z,807.51
2018-08-07T00:48:15.487Z,807.5
2018-08-07T00:48:19.780Z,807.47
2018-08-07T00:48:23.982Z,807.46
2018-08-07T00:48:28.173Z,807.48
2018-08-07T00:48:32.471Z,807.47
2018-08-07T00:48:36.662Z,807.48
2018-08-07T00:48:40.854Z,807.47
2018-08-07T00:48:45.163Z,807.47
2018-08-07T00:48:49.253Z,807.43
2018-08-07T00:48:53.554Z,807.44
2018-08-07T00:48:57.857Z,807.43
2018-08-07T00:49:02.044Z,807.4
2018-08-07T00:49:06.127Z,807.45
2018-08-07T00:49:10.113Z,807.44
2018-08-07T00:49:14.316Z,807.44
2018-08-07T00:49:18.617Z,807.43
2018-08-07T00:49:22.928Z,807.43
2018-08-07T00:49:26.702Z,807.4
2018-08-07T00:49:30.792Z,807.43
2018-08-07T00:49:35.094Z,807.45
2018-08-07T00:49:39.179Z,807.44
2018-08-07T00:49:43.539Z,807.43
2018-08-07T00:49:47.730Z,807.43
2018-08-07T00:49:51.708Z,807.44
2018-08-07T00:49:55.797Z,807.39
2018-08-07T00:49:59.893Z,807.43
2018-08-07T00:50:04.126Z,807.42
2018-08-07T00:50:08.586Z,807.42
2018-08-07T00:50:12.861Z,807.4
2018-08-07T00:50:17.060Z,807.39
2018-08-07T00:50:21.257Z,807.43
2018-08-07T00:50:25.350Z,807.42
2018-08-07T00:50:29.659Z,807.4
2018-08-07T00:50:33.863Z,807.4
2018-08-07T00:50:38.170Z,807.41
2018-08-07T00:50:42.264Z,807.42
2018-08-07T00:50:46.560Z,807.4
2018-08-07T00:50:50.877Z,807.41
2018-08-07T00:50:55.181Z,807.36
2018-08-07T00:50:59.275Z,807.37
2018-08-07T00:51:03.464Z,807.36
2018-08-07T00:51:07.759Z,807.37
2018-08-07T00:51:11.955Z,807.36
2018-08-07T00:51:16.263Z,807.35
2018-08-07T00:51:20.350Z,807.35
2018-08-07T00:51:24.556Z,807.36
2018-08-07T00:51:28.856Z,807.37
2018-08-07T00:51:33.047Z,807.32
2018-08-07T00:51:37.289Z,807.36
2018-08-07T00:51:41.492Z,807.37
2018-08-07T00:51:45.692Z,807.35
2018-08-07T00:51:49.891Z,807.35
2018-08-07T00:51:53.868Z,807.33
2018-08-07T00:51:58.062Z,807.34
2018-08-07T00:52:02.264Z,807.31
2018-08-07T00:52:06.467Z,807.34
2018-08-07T00:52:10.784Z,807.33
2018-08-07T00:52:14.876Z,807.35
2018-08-07T00:52:19.182Z,807.34
2018-08-07T00:52:23.480Z,807.32
2018-08-07T00:52:27.677Z,807.32
2018-08-07T00:52:31.870Z,807.31
2018-08-07T00:52:35.851Z,807.29
2018-08-07T00:52:40.158Z,807.3